createdAt,value
2022-11-20T00:01:26.715Z,30.23
2022-11-20T00:03:54.683Z,28.75
2022-11-20T00:06:22.760Z,27.58
2022-11-20T00:08:50.011Z,24.70
2022-11-20T00:11:22.101Z,26.00
2022-11-20T00:13:50.946Z,25.90
2022-11-20T00:16:20.542Z,23.80
2022-11-20T00:18:47.959Z,24.85
2022-11-20T00:21:17.324Z,23.35
2022-11-20T00:23:44.270Z,26.33
2022-11-20T00:26:13.466Z,27.00
2022-11-20T00:28:40.661Z,23.23
2022-11-20T00:31:09.559Z,23.95
2022-11-20T00:33:36.879Z,20.63
2022-11-20T00:36:09.327Z,23.42
2022-11-20T00:38:36.478Z,22.67
2022-11-20T00:41:05.769Z,23.88
2022-11-20T00:43:32.752Z,28.70
2022-11-20T00:46:03.886Z,24.35
2022-11-20T00:48:30.912Z,24.00
2022-11-20T00:50:58.099Z,23.17
2022-11-20T00:53:25.560Z,22.73
2022-11-20T00:56:00.553Z,23.48
2022-11-20T00:58:33.871Z,22.38
2022-11-20T01:01:08.943Z,23.48
2022-11-20T01:03:37.913Z,21.52
2022-11-20T01:06:06.812Z,28.65
2022-11-20T01:08:37.468Z,20.90
2022-11-20T01:11:06.485Z,22.70
2022-11-20T01:13:40.103Z,20.17
2022-11-20T01:16:12.565Z,22.73
2022-11-20T01:18:42.142Z,21.38
2022-11-20T01:21:33.033Z,20.52
2022-11-20T01:24:00.800Z,21.75
2022-11-20T01:26:31.688Z,17.63
2022-11-20T01:28:59.633Z,20.95
2022-11-20T01:31:27.666Z,20.95
2022-11-20T01:33:56.976Z,21.92
2022-11-20T01:36:28.373Z,21.45
2022-11-20T01:39:00.098Z,21.67
2022-11-20T01:41:54.553Z,22.40
2022-11-20T01:44:24.364Z,21.92
2022-11-20T01:46:59.747Z,19.90
2022-11-20T01:49:39.673Z,19.15
2022-11-20T01:52:13.376Z,21.48
2022-11-20T01:54:54.134Z,22.42
2022-11-20T01:57:21.403Z,22.40
2022-11-20T01:59:56.115Z,25.58
2022-11-20T02:02:35.454Z,23.08
2022-11-20T02:05:23.144Z,22.33
2022-11-20T02:07:49.997Z,18.77
2022-11-20T02:10:17.036Z,23.10
2022-11-20T02:13:02.660Z,18.77
2022-11-20T02:15:30.545Z,20.52
2022-11-20T02:17:57.557Z,26.08
2022-11-20T02:20:24.571Z,23.65
2022-11-20T02:22:55.457Z,22.38
2022-11-20T02:25:22.487Z,20.33
2022-11-20T02:27:49.435Z,15.65
2022-11-20T02:30:16.332Z,18.63
2022-11-20T02:32:43.226Z,21.65
2022-11-20T02:35:21.913Z,18.10
2022-11-20T02:37:51.346Z,18.33
2022-11-20T02:40:18.297Z,19.38
2022-11-20T02:42:45.133Z,18.90
2022-11-20T02:45:12.085Z,18.58
2022-11-20T02:47:38.982Z,25.58
2022-11-20T02:50:06.904Z,16.63
2022-11-20T02:52:33.727Z,20.77
2022-11-20T02:55:01.578Z,26.80
2022-11-20T02:57:28.990Z,24.55
2022-11-20T02:59:55.952Z,19.58
2022-11-20T03:02:23.010Z,16.40
2022-11-20T03:05:09.043Z,18.98
2022-11-20T03:07:36.275Z,22.05
2022-11-20T03:10:03.650Z,26.15
2022-11-20T03:12:30.637Z,19.77
2022-11-20T03:14:57.517Z,20.48
2022-11-20T03:17:24.346Z,21.48
2022-11-20T03:19:51.194Z,20.48
2022-11-20T03:22:18.034Z,23.55
2022-11-20T03:24:44.880Z,32.70
2022-11-20T03:27:11.710Z,33.60
2022-11-20T03:29:38.529Z,24.92
2022-11-20T03:32:05.671Z,23.80
2022-11-20T03:34:32.696Z,72.05
2022-11-20T03:36:59.603Z,43.60
2022-11-20T03:39:27.183Z,30.17
2022-11-20T03:41:54.195Z,23.05
2022-11-20T03:44:22.643Z,25.17
2022-11-20T03:46:49.490Z,26.88
2022-11-20T03:49:16.459Z,30.60
2022-11-20T03:51:43.343Z,26.83
2022-11-20T03:54:10.294Z,32.70
2022-11-20T03:56:39.056Z,51.58
2022-11-20T03:59:06.174Z,34.95
2022-11-20T04:01:35.457Z,24.25
2022-11-20T04:04:02.709Z,30.98
2022-11-20T04:06:32.208Z,23.48
2022-11-20T04:09:00.431Z,29.08
2022-11-20T04:11:28.458Z,23.48
2022-11-20T04:13:57.964Z,19.85
2022-11-20T04:16:26.187Z,23.25
2022-11-20T04:18:55.021Z,31.60
2022-11-20T04:21:22.471Z,26.48
2022-11-20T04:23:50.456Z,23.65
2022-11-20T04:26:17.460Z,23.17
2022-11-20T04:28:44.726Z,24.83
2022-11-20T04:31:16.637Z,20.20
2022-11-20T04:33:43.823Z,93.67
2022-11-20T04:36:16.128Z,92.82
2022-11-20T04:38:43.212Z,46.45
2022-11-20T04:41:18.778Z,63.83
2022-11-20T04:43:54.604Z,80.28
2022-11-20T04:46:22.016Z,56.42
2022-11-20T04:48:49.117Z,152.75
2022-11-20T04:51:16.120Z,32.83
2022-11-20T04:53:43.463Z,368.60
2022-11-20T04:56:12.093Z,211.40
2022-11-20T04:58:39.661Z,35.03
2022-11-20T05:01:09.028Z,107.00
2022-11-20T05:03:41.017Z,29.83
2022-11-20T05:06:10.515Z,26.90
2022-11-20T05:08:37.438Z,50.90
2022-11-20T05:11:08.744Z,74.35
2022-11-20T05:13:35.832Z,72.10
2022-11-20T05:16:07.906Z,75.93
2022-11-20T05:18:35.379Z,66.00
2022-11-20T05:21:02.544Z,50.72
2022-11-20T05:23:31.196Z,59.33
2022-11-20T05:25:59.593Z,59.85
2022-11-20T05:28:27.458Z,81.95
2022-11-20T05:30:54.387Z,57.05
2022-11-20T05:33:21.798Z,52.05
2022-11-20T05:35:49.502Z,37.45
2022-11-20T05:38:16.752Z,46.50
2022-11-20T05:40:43.638Z,53.95
2022-11-20T05:43:10.611Z,59.22
2022-11-20T05:45:37.443Z,46.78
2022-11-20T05:48:04.799Z,34.45
2022-11-20T05:50:31.645Z,41.85
2022-11-20T05:53:01.666Z,39.38
2022-11-20T05:55:28.902Z,39.25
2022-11-20T05:57:56.281Z,35.13
2022-11-20T06:00:23.432Z,39.72
2022-11-20T06:02:50.630Z,38.90
2022-11-20T06:05:17.603Z,35.22
2022-11-20T06:07:44.529Z,37.15
2022-11-20T06:10:12.005Z,35.78
2022-11-20T06:12:38.882Z,40.65
2022-11-20T06:15:06.704Z,39.13
2022-11-20T06:17:33.858Z,38.80
2022-11-20T06:20:00.760Z,38.65
2022-11-20T06:22:27.627Z,42.45
2022-11-20T06:24:54.437Z,36.78
2022-11-20T06:27:21.348Z,36.65
2022-11-20T06:29:48.193Z,41.03
2022-11-20T06:32:15.113Z,28.38
2022-11-20T06:34:41.959Z,35.50
2022-11-20T06:37:08.795Z,36.70
2022-11-20T06:39:35.589Z,37.20
2022-11-20T06:42:02.900Z,35.17
2022-11-20T06:44:29.735Z,34.88
2022-11-20T06:46:56.525Z,37.28
2022-11-20T06:49:23.774Z,36.78
2022-11-20T06:51:50.853Z,35.50
2022-11-20T06:54:17.669Z,36.83
2022-11-20T06:56:48.969Z,35.03
2022-11-20T06:59:16.019Z,34.45
2022-11-20T07:01:42.836Z,33.92
2022-11-20T07:04:09.905Z,36.50
2022-11-20T07:06:37.193Z,36.13
2022-11-20T07:09:06.394Z,35.53
2022-11-20T07:11:35.415Z,35.20
2022-11-20T07:14:02.703Z,36.20
2022-11-20T07:17:09.729Z,33.42
2022-11-20T07:19:36.574Z,40.92
2022-11-20T07:22:03.553Z,33.67
2022-11-20T07:24:30.394Z,34.30
2022-11-20T07:26:57.229Z,33.55
2022-11-20T07:29:24.257Z,47.00
2022-11-20T07:31:51.224Z,43.50
2022-11-20T07:34:18.212Z,44.53
2022-11-20T07:36:45.128Z,35.65
2022-11-20T07:39:12.029Z,34.85
2022-11-20T07:41:38.925Z,35.65
2022-11-20T07:44:06.069Z,40.13
2022-11-20T07:46:33.030Z,41.08
2022-11-20T07:48:59.986Z,39.03
2022-11-20T07:51:27.062Z,43.25
2022-11-20T07:53:54.119Z,40.15
2022-11-20T07:56:21.735Z,34.45
2022-11-20T07:58:48.614Z,40.97
2022-11-20T08:01:15.534Z,54.05
2022-11-20T08:03:42.399Z,67.15
2022-11-20T08:06:09.799Z,69.82
2022-11-20T08:08:41.411Z,49.53
2022-11-20T08:14:13.418Z,82.82
2022-11-20T08:16:45.969Z,46.78
2022-11-20T08:19:14.225Z,41.88
2022-11-20T08:21:41.703Z,50.63
2022-11-20T08:24:09.632Z,41.67
2022-11-20T08:26:37.917Z,34.50
2022-11-20T08:29:05.559Z,67.93
2022-11-20T08:31:32.832Z,51.50
2022-11-20T08:33:59.643Z,57.75
2022-11-20T08:36:26.688Z,62.70
2022-11-20T08:38:55.311Z,65.40
2022-11-20T08:41:26.470Z,52.35
2022-11-20T08:43:58.295Z,65.22
2022-11-20T08:46:27.865Z,49.38
2022-11-20T08:48:54.962Z,47.13
2022-11-20T08:51:22.060Z,55.08
2022-11-20T08:53:49.722Z,44.65
2022-11-20T08:56:17.068Z,46.15
2022-11-20T08:59:16.116Z,44.95
2022-11-20T09:01:32.324Z,48.92
2022-11-20T09:04:00.693Z,38.72
2022-11-20T09:06:27.541Z,32.85
2022-11-20T09:08:55.111Z,37.88
2022-11-20T09:11:22.342Z,37.80
2022-11-20T09:13:49.301Z,45.88
2022-11-20T09:16:16.171Z,37.25
2022-11-20T09:18:43.061Z,53.63
2022-11-20T09:21:14.747Z,52.45
2022-11-20T09:23:41.689Z,58.20
2022-11-20T09:26:13.785Z,60.00
2022-11-20T09:28:41.247Z,73.03
2022-11-20T09:31:24.784Z,54.97
2022-11-20T09:33:51.939Z,52.20
2022-11-20T09:36:19.710Z,120.57
2022-11-20T09:38:47.205Z,74.53
2022-11-20T09:41:46.906Z,74.82
2022-11-20T09:44:22.358Z,51.25
2022-11-20T09:47:07.989Z,43.28
2022-11-20T09:49:57.429Z,33.53
2022-11-20T09:52:43.687Z,37.28
2022-11-20T09:55:12.349Z,40.28
2022-11-20T09:57:45.544Z,34.55
2022-11-20T10:00:14.472Z,41.72
2022-11-20T10:02:46.383Z,35.53
2022-11-20T10:05:22.832Z,48.55
2022-11-20T10:08:11.002Z,36.50
2022-11-20T10:10:59.957Z,52.67
2022-11-20T10:13:51.247Z,59.75
2022-11-20T10:16:59.261Z,55.10
2022-11-20T10:19:47.318Z,53.97
2022-11-20T10:22:53.942Z,50.78
2022-11-20T10:25:25.665Z,50.17
2022-11-20T10:28:05.616Z,46.17
2022-11-20T10:30:32.723Z,46.90
2022-11-20T10:33:07.757Z,46.42
2022-11-20T10:36:03.934Z,42.33
2022-11-20T10:39:18.822Z,47.33
2022-11-20T10:41:49.469Z,63.70
2022-11-20T10:44:38.991Z,53.92
2022-11-20T10:47:09.442Z,47.92
2022-11-20T10:49:36.637Z,34.75
2022-11-20T10:52:24.637Z,32.03
2022-11-20T10:55:19.833Z,34.72
2022-11-20T10:57:50.090Z,31.50
2022-11-20T11:00:18.316Z,32.88
2022-11-20T11:02:56.051Z,27.80
2022-11-20T11:05:46.317Z,33.00
2022-11-20T11:08:18.892Z,35.45
2022-11-20T11:11:00.559Z,26.65
2022-11-20T11:13:30.017Z,34.45
2022-11-20T11:15:58.753Z,27.90
2022-11-20T11:18:27.933Z,25.25
2022-11-20T11:20:56.037Z,27.65
2022-11-20T11:23:43.117Z,30.95
2022-11-20T11:26:24.176Z,30.80
2022-11-20T11:29:04.528Z,31.08
2022-11-20T11:31:35.814Z,26.63
2022-11-20T11:34:12.276Z,26.67
2022-11-20T11:36:39.520Z,25.35
2022-11-20T11:39:12.294Z,25.90
2022-11-20T11:41:39.170Z,23.38
2022-11-20T11:44:39.913Z,23.85
2022-11-20T11:47:24.272Z,26.42
2022-11-20T11:50:10.819Z,25.83
2022-11-20T11:52:45.354Z,26.17
2022-11-20T11:55:26.086Z,25.48
2022-11-20T11:57:57.375Z,25.08
2022-11-20T12:00:24.339Z,25.27
2022-11-20T12:03:12.726Z,24.88
2022-11-20T12:05:50.757Z,28.83
2022-11-20T12:08:23.791Z,30.20
2022-11-20T12:11:31.653Z,23.52
2022-11-20T12:14:20.823Z,23.73
2022-11-20T12:16:47.909Z,29.25
2022-11-20T12:19:15.706Z,23.42
2022-11-20T12:22:19.404Z,22.05
2022-11-20T12:27:55.106Z,25.02
2022-11-20T12:30:22.953Z,20.70
2022-11-20T12:33:26.526Z,20.15
2022-11-20T12:36:12.085Z,25.23
2022-11-20T12:38:57.208Z,17.67
2022-11-20T12:41:47.185Z,17.85
2022-11-20T12:45:10.344Z,17.05
2022-11-20T12:47:48.881Z,19.05
2022-11-20T12:51:00.251Z,17.02
2022-11-20T12:53:47.770Z,12.68
2022-11-20T12:57:03.580Z,17.88
2022-11-20T12:59:53.473Z,15.15
2022-11-20T13:02:31.700Z,18.05
2022-11-20T13:05:19.248Z,16.67
2022-11-20T13:07:46.748Z,16.38
2022-11-20T13:10:28.168Z,16.23
2022-11-20T13:13:03.468Z,15.68
2022-11-20T13:15:50.522Z,22.63
2022-11-20T13:18:17.733Z,31.98
2022-11-20T13:20:46.601Z,28.20
2022-11-20T13:23:28.485Z,18.42
2022-11-20T13:26:06.512Z,20.55
2022-11-20T13:28:33.768Z,21.08
2022-11-20T13:31:00.831Z,23.30
2022-11-20T13:33:35.808Z,31.67
2022-11-20T13:36:07.703Z,25.25
2022-11-20T13:38:51.781Z,43.97
2022-11-20T13:41:39.067Z,30.48
2022-11-20T13:44:27.873Z,24.63
2022-11-20T13:46:54.777Z,46.83
2022-11-20T13:49:43.924Z,36.05
2022-11-20T13:52:49.525Z,47.13
2022-11-20T13:55:52.181Z,61.35
2022-11-20T13:58:58.596Z,54.67
2022-11-20T14:01:32.583Z,44.25
2022-11-20T14:04:06.041Z,41.38
2022-11-20T14:06:36.330Z,37.95
2022-11-20T14:09:03.237Z,75.38
2022-11-20T14:11:31.411Z,60.75
2022-11-20T14:13:59.547Z,83.45
2022-11-20T14:16:28.579Z,53.28
2022-11-20T14:18:56.587Z,40.22
2022-11-20T14:21:28.130Z,41.65
2022-11-20T14:24:05.566Z,48.97
2022-11-20T14:26:33.023Z,41.22
2022-11-20T14:29:00.408Z,33.85
2022-11-20T14:31:28.029Z,35.60
2022-11-20T14:33:55.654Z,206.27
2022-11-20T14:36:24.539Z,197.05
2022-11-20T14:38:52.638Z,87.50
2022-11-20T14:41:24.243Z,58.22
2022-11-20T14:44:00.980Z,34.25
2022-11-20T14:46:29.012Z,49.08
2022-11-20T14:48:57.453Z,46.63
2022-11-20T14:51:29.611Z,37.63
2022-11-20T14:53:56.499Z,31.47
2022-11-20T14:56:26.172Z,29.63
2022-11-20T14:58:59.409Z,35.20
2022-11-20T15:01:31.071Z,35.00
2022-11-20T15:04:01.795Z,42.40
2022-11-20T15:06:28.950Z,40.55
2022-11-20T15:08:56.069Z,36.05
2022-11-20T15:11:29.329Z,39.58
2022-11-20T15:13:56.585Z,32.38
2022-11-20T15:16:24.962Z,34.00
2022-11-20T15:18:52.522Z,35.90
2022-11-20T15:21:21.824Z,34.28
2022-11-20T15:23:49.156Z,36.17
2022-11-20T15:26:26.702Z,41.42
2022-11-20T15:28:54.280Z,49.80
2022-11-20T15:31:23.419Z,54.83
2022-11-20T15:33:50.468Z,107.90
2022-11-20T15:36:18.076Z,81.50
2022-11-20T15:38:45.041Z,72.90
2022-11-20T15:41:12.389Z,70.60
2022-11-20T15:43:39.691Z,73.60
2022-11-20T15:46:15.006Z,75.93
2022-11-20T15:48:48.219Z,49.35
2022-11-20T15:51:37.145Z,53.50
2022-11-20T15:54:23.787Z,49.22
2022-11-20T15:56:53.306Z,45.22
2022-11-20T15:59:20.221Z,41.97
2022-11-20T16:01:47.366Z,33.90
2022-11-20T16:04:16.374Z,36.40
2022-11-20T16:06:43.595Z,37.85
2022-11-20T16:09:10.713Z,37.05
2022-11-20T16:11:38.347Z,44.17
2022-11-20T16:14:25.211Z,36.00
2022-11-20T16:16:52.354Z,34.28
2022-11-20T16:19:19.617Z,52.00
2022-11-20T16:21:46.865Z,64.72
2022-11-20T16:24:15.294Z,46.50
2022-11-20T16:26:42.569Z,42.53
2022-11-20T16:29:09.738Z,46.50
2022-11-20T16:31:36.810Z,50.22
2022-11-20T16:34:11.549Z,48.65
2022-11-20T16:36:43.482Z,71.15
2022-11-20T16:39:10.899Z,96.80
2022-11-20T16:41:37.801Z,102.72
2022-11-20T16:44:09.444Z,46.80
2022-11-20T16:46:36.321Z,45.72
2022-11-20T16:49:09.983Z,40.75
2022-11-20T16:51:37.184Z,44.60
2022-11-20T16:54:09.096Z,40.58
2022-11-20T16:56:36.549Z,37.30
2022-11-20T16:59:04.398Z,42.97
2022-11-20T17:01:31.866Z,44.95
2022-11-20T17:04:03.234Z,48.90
2022-11-20T17:06:34.747Z,45.95
2022-11-20T17:09:02.470Z,52.67
2022-11-20T17:11:29.814Z,42.78
2022-11-20T17:13:58.068Z,57.70
2022-11-20T17:16:25.463Z,52.55
2022-11-20T17:18:58.333Z,55.13
2022-11-20T17:21:30.009Z,46.72
2022-11-20T17:23:59.845Z,47.00
2022-11-20T17:26:28.386Z,44.90
2022-11-20T17:28:58.255Z,47.90
2022-11-20T17:31:26.338Z,55.60
2022-11-20T17:33:53.466Z,60.33
2022-11-20T17:36:20.727Z,65.75
2022-11-20T17:38:47.804Z,43.60
2022-11-20T17:41:19.780Z,59.33
2022-11-20T17:43:46.808Z,76.07
2022-11-20T17:46:18.390Z,56.28
2022-11-20T17:48:46.184Z,104.20
2022-11-20T17:51:18.932Z,68.97
2022-11-20T17:53:47.684Z,125.03
2022-11-20T17:56:33.237Z,95.20
2022-11-20T17:59:00.749Z,60.78
2022-11-20T18:01:27.634Z,68.78
2022-11-20T18:03:56.629Z,99.32
2022-11-20T18:06:26.376Z,76.70
2022-11-20T18:08:53.745Z,57.47
2022-11-20T18:11:26.028Z,72.13
2022-11-20T18:14:14.183Z,56.00
2022-11-20T18:16:46.072Z,62.15
2022-11-20T18:19:18.089Z,68.90
2022-11-20T18:21:45.022Z,75.47
2022-11-20T18:24:11.907Z,61.50
2022-11-20T18:26:44.063Z,50.75
2022-11-20T18:29:12.339Z,57.97
2022-11-20T18:31:39.584Z,78.97
2022-11-20T18:34:11.429Z,51.63
2022-11-20T18:36:38.871Z,52.05
2022-11-20T18:39:06.351Z,46.75
2022-11-20T18:41:52.023Z,49.38
2022-11-20T18:44:43.372Z,73.57
2022-11-20T18:47:14.848Z,57.85
2022-11-20T18:49:52.932Z,45.70
2022-11-20T18:52:25.206Z,44.20
2022-11-20T18:54:53.159Z,67.45
2022-11-20T18:57:21.401Z,49.83
2022-11-20T18:59:48.303Z,57.60
2022-11-20T19:02:17.718Z,52.85
2022-11-20T19:04:44.580Z,58.47
2022-11-20T19:07:12.207Z,35.97
2022-11-20T19:09:40.770Z,39.78
2022-11-20T19:12:08.737Z,35.53
2022-11-20T19:14:35.975Z,47.17
2022-11-20T19:17:04.809Z,39.50
2022-11-20T19:19:31.821Z,31.60
2022-11-20T19:21:58.701Z,23.77
2022-11-20T19:24:27.586Z,27.13
2022-11-20T19:26:56.210Z,25.90
2022-11-20T19:29:24.455Z,23.92
2022-11-20T19:31:51.815Z,20.88
2022-11-20T19:34:18.709Z,26.65
2022-11-20T19:36:45.709Z,23.83
2022-11-20T19:39:13.268Z,40.60
2022-11-20T19:41:40.868Z,19.83
2022-11-20T19:44:10.560Z,17.35
2022-11-20T19:46:38.873Z,17.38
2022-11-20T19:49:07.575Z,14.50
2022-11-20T19:51:35.568Z,23.10
2022-11-20T19:54:03.200Z,15.40
2022-11-20T19:56:31.650Z,12.98
2022-11-20T19:58:58.609Z,13.65
2022-11-20T20:01:27.598Z,11.32
2022-11-20T20:03:55.360Z,12.75
2022-11-20T20:06:24.760Z,14.77
2022-11-20T20:08:59.761Z,13.38
2022-11-20T20:11:29.202Z,22.52
2022-11-20T20:13:56.532Z,16.52
2022-11-20T20:16:26.314Z,29.85
2022-11-20T20:18:57.850Z,20.15
2022-11-20T20:21:25.122Z,10.95
2022-11-20T20:23:55.517Z,12.85
2022-11-20T20:26:24.011Z,7.78
2022-11-20T20:28:51.323Z,10.63
2022-11-20T20:31:21.435Z,7.15
2022-11-20T20:33:48.652Z,11.23
2022-11-20T20:36:17.729Z,10.23
2022-11-20T20:38:46.314Z,11.68
2022-11-20T20:41:14.216Z,9.40
2022-11-20T20:43:59.749Z,9.48
2022-11-20T20:46:26.763Z,7.20
2022-11-20T20:48:54.824Z,7.28
2022-11-20T20:51:23.690Z,10.73
2022-11-20T20:53:51.169Z,12.48
2022-11-20T20:56:18.568Z,6.68
2022-11-20T20:58:45.824Z,5.53
2022-11-20T21:01:14.718Z,5.53
2022-11-20T21:03:42.022Z,6.18
2022-11-20T21:06:10.599Z,5.30
2022-11-20T21:08:40.447Z,5.03
2022-11-20T21:11:13.979Z,6.38
2022-11-20T21:13:42.966Z,8.65
2022-11-20T21:16:10.944Z,8.35
2022-11-20T21:18:38.063Z,8.77
2022-11-20T21:21:25.083Z,7.30
2022-11-20T21:23:53.503Z,10.30
2022-11-20T21:26:21.037Z,10.32
2022-11-20T21:28:48.069Z,7.28
2022-11-20T21:31:18.493Z,7.85
2022-11-20T21:33:47.045Z,6.05
2022-11-20T21:36:16.161Z,6.38
2022-11-20T21:38:43.793Z,7.82
2022-11-20T21:41:11.999Z,4.97
2022-11-20T21:43:38.916Z,8.23
2022-11-20T21:46:13.643Z,8.80
2022-11-20T21:48:41.971Z,11.43
2022-11-20T21:51:13.731Z,6.80
2022-11-20T21:53:41.068Z,11.10
2022-11-20T21:56:09.313Z,7.70
2022-11-20T21:58:36.816Z,11.93
2022-11-20T22:01:11.424Z,18.00
2022-11-20T22:03:38.997Z,7.63
2022-11-20T22:06:06.978Z,12.38
2022-11-20T22:08:37.662Z,9.80
2022-11-20T22:11:09.330Z,7.65
2022-11-20T22:13:55.015Z,8.52
2022-11-20T22:16:22.495Z,11.32
2022-11-20T22:18:51.281Z,16.95
2022-11-20T22:21:20.180Z,14.95
2022-11-20T22:23:47.165Z,23.52
2022-11-20T22:26:16.417Z,13.00
2022-11-20T22:28:43.950Z,10.63
2022-11-20T22:31:11.721Z,8.43
2022-11-20T22:33:39.201Z,8.20
2022-11-20T22:36:18.432Z,13.32
2022-11-20T22:38:45.360Z,10.40
2022-11-20T22:41:17.842Z,12.55
2022-11-20T22:43:45.210Z,11.30
2022-11-20T22:46:15.880Z,10.80
2022-11-20T22:48:44.682Z,12.05
2022-11-20T22:51:13.616Z,11.73
2022-11-20T22:53:41.820Z,10.98
2022-11-20T22:56:10.391Z,9.88
2022-11-20T22:58:44.694Z,11.25
2022-11-20T23:01:16.871Z,13.43
2022-11-20T23:03:45.863Z,12.40
2022-11-20T23:06:13.280Z,11.85
2022-11-20T23:08:41.532Z,13.35
2022-11-20T23:11:10.911Z,15.10
2022-11-20T23:13:37.939Z,15.80
2022-11-20T23:16:16.478Z,13.15
2022-11-20T23:18:44.377Z,15.98
2022-11-20T23:21:49.392Z,12.25
2022-11-20T23:24:18.751Z,15.00
2022-11-20T23:26:47.938Z,13.00
2022-11-20T23:29:15.095Z,24.45
2022-11-20T23:31:42.028Z,17.77
2022-11-20T23:34:09.070Z,21.42
2022-11-20T23:36:35.965Z,17.77
2022-11-20T23:39:02.994Z,23.95
2022-11-20T23:41:29.865Z,21.73
2022-11-20T23:44:00.149Z,21.98
2022-11-20T23:46:27.226Z,22.73
2022-11-20T23:48:57.053Z,24.48
2022-11-20T23:51:23.975Z,24.20
2022-11-20T23:53:50.857Z,24.08
2022-11-20T23:56:17.711Z,20.85
2022-11-20T23:58:44.583Z,18.48
